sensor_id;sensor_type;location;lat;lon;timestamp;P1;durP1;ratioP1;P2;durP2;ratioP2
38865;SDS011;62686;48.984;8.394;2023-04-03T00:01:01;2.23;;;1.60;;
38865;SDS011;62686;48.984;8.394;2023-04-03T00:03:30;2.20;;;1.40;;
38865;SDS011;62686;48.984;8.394;2023-04-03T00:05:59;2.20;;;1.33;;
38865;SDS011;62686;48.984;8.394;2023-04-03T00:08:28;1.90;;;1.57;;
38865;SDS011;62686;48.984;8.394;2023-04-03T00:10:57;5.10;;;1.83;;
38865;SDS011;62686;48.984;8.394;2023-04-03T00:13:25;4.07;;;1.67;;
38865;SDS011;62686;48.984;8.394;2023-04-03T00:15:54;4.10;;;1.63;;
38865;SDS011;62686;48.984;8.394;2023-04-03T00:18:24;2.47;;;1.40;;
38865;SDS011;62686;48.984;8.394;2023-04-03T00:20:52;2.73;;;1.60;;
38865;SDS011;62686;48.984;8.394;2023-04-03T00:23:20;3.00;;;1.80;;
38865;SDS011;62686;48.984;8.394;2023-04-03T00:25:50;2.87;;;1.67;;
38865;SDS011;62686;48.984;8.394;2023-04-03T00:28:18;3.93;;;1.83;;
38865;SDS011;62686;48.984;8.394;2023-04-03T00:30:48;2.97;;;1.70;;
38865;SDS011;62686;48.984;8.394;2023-04-03T00:33:16;4.17;;;1.80;;
38865;SDS011;62686;48.984;8.394;2023-04-03T00:35:49;3.47;;;1.70;;
38865;SDS011;62686;48.984;8.394;2023-04-03T00:38:17;4.30;;;1.70;;
38865;SDS011;62686;48.984;8.394;2023-04-03T00:40:46;3.27;;;1.60;;
38865;SDS011;62686;48.984;8.394;2023-04-03T00:43:16;3.17;;;1.43;;
38865;SDS011;62686;48.984;8.394;2023-04-03T00:45:47;2.50;;;1.50;;
38865;SDS011;62686;48.984;8.394;2023-04-03T00:48:17;3.23;;;1.73;;
38865;SDS011;62686;48.984;8.394;2023-04-03T00:50:50;2.40;;;1.80;;
38865;SDS011;62686;48.984;8.394;2023-04-03T00:53:21;2.67;;;1.63;;
38865;SDS011;62686;48.984;8.394;2023-04-03T00:55:52;3.00;;;1.57;;
38865;SDS011;62686;48.984;8.394;2023-04-03T00:58:24;2.40;;;1.50;;
38865;SDS011;62686;48.984;8.394;2023-04-03T01:00:56;5.67;;;1.50;;
38865;SDS011;62686;48.984;8.394;2023-04-03T01:03:26;1.63;;;1.53;;
38865;SDS011;62686;48.984;8.394;2023-04-03T01:05:56;2.60;;;1.43;;
38865;SDS011;62686;48.984;8.394;2023-04-03T01:08:25;3.47;;;1.60;;
38865;SDS011;62686;48.984;8.394;2023-04-03T01:10:53;1.87;;;1.40;;
38865;SDS011;62686;48.984;8.394;2023-04-03T01:13:23;2.13;;;1.40;;
38865;SDS011;62686;48.984;8.394;2023-04-03T01:15:53;2.67;;;1.50;;
38865;SDS011;62686;48.984;8.394;2023-04-03T01:18:21;2.77;;;1.47;;
38865;SDS011;62686;48.984;8.394;2023-04-03T01:23:53;3.23;;;1.50;;
38865;SDS011;62686;48.984;8.394;2023-04-03T01:26:37;3.07;;;1.50;;
38865;SDS011;62686;48.984;8.394;2023-04-03T01:29:06;1.87;;;1.50;;
38865;SDS011;62686;48.984;8.394;2023-04-03T01:31:44;1.93;;;1.30;;
38865;SDS011;62686;48.984;8.394;2023-04-03T01:34:16;2.77;;;1.60;;
38865;SDS011;62686;48.984;8.394;2023-04-03T01:36:44;2.37;;;1.40;;
38865;SDS011;62686;48.984;8.394;2023-04-03T01:39:13;2.30;;;1.30;;
38865;SDS011;62686;48.984;8.394;2023-04-03T01:41:41;4.27;;;1.53;;
38865;SDS011;62686;48.984;8.394;2023-04-03T01:44:10;2.50;;;1.50;;
38865;SDS011;62686;48.984;8.394;2023-04-03T01:46:39;2.13;;;1.50;;
38865;SDS011;62686;48.984;8.394;2023-04-03T01:49:10;3.20;;;1.73;;
38865;SDS011;62686;48.984;8.394;2023-04-03T01:51:38;2.20;;;1.70;;
38865;SDS011;62686;48.984;8.394;2023-04-03T01:54:06;2.33;;;1.50;;
38865;SDS011;62686;48.984;8.394;2023-04-03T01:56:34;2.20;;;1.60;;
38865;SDS011;62686;48.984;8.394;2023-04-03T01:59:02;4.10;;;2.07;;
38865;SDS011;62686;48.984;8.394;2023-04-03T02:01:30;3.00;;;1.50;;
38865;SDS011;62686;48.984;8.394;2023-04-03T02:03:59;3.00;;;1.80;;
38865;SDS011;62686;48.984;8.394;2023-04-03T02:06:29;3.00;;;1.70;;
38865;SDS011;62686;48.984;8.394;2023-04-03T02:08:57;2.43;;;1.80;;
38865;SDS011;62686;48.984;8.394;2023-04-03T02:11:25;3.07;;;1.80;;
38865;SDS011;62686;48.984;8.394;2023-04-03T02:13:53;4.50;;;1.80;;
38865;SDS011;62686;48.984;8.394;2023-04-03T02:16:21;2.03;;;1.60;;
38865;SDS011;62686;48.984;8.394;2023-04-03T02:18:49;3.87;;;1.70;;
38865;SDS011;62686;48.984;8.394;2023-04-03T02:21:17;2.77;;;1.70;;
38865;SDS011;62686;48.984;8.394;2023-04-03T02:23:47;2.40;;;1.57;;
38865;SDS011;62686;48.984;8.394;2023-04-03T02:26:16;2.03;;;1.60;;
38865;SDS011;62686;48.984;8.394;2023-04-03T02:28:44;1.93;;;1.47;;
38865;SDS011;62686;48.984;8.394;2023-04-03T02:31:13;3.53;;;1.67;;
38865;SDS011;62686;48.984;8.394;2023-04-03T02:33:41;2.87;;;1.83;;
38865;SDS011;62686;48.984;8.394;2023-04-03T02:36:09;7.03;;;1.70;;
38865;SDS011;62686;48.984;8.394;2023-04-03T02:38:38;3.00;;;1.90;;
38865;SDS011;62686;48.984;8.394;2023-04-03T02:43:43;5.87;;;1.73;;
38865;SDS011;62686;48.984;8.394;2023-04-03T02:46:11;3.13;;;1.73;;
38865;SDS011;62686;48.984;8.394;2023-04-03T02:48:41;3.30;;;2.20;;
38865;SDS011;62686;48.984;8.394;2023-04-03T02:51:09;3.27;;;1.87;;
38865;SDS011;62686;48.984;8.394;2023-04-03T02:53:37;2.97;;;1.90;;
38865;SDS011;62686;48.984;8.394;2023-04-03T02:56:05;3.40;;;1.93;;
38865;SDS011;62686;48.984;8.394;2023-04-03T02:58:34;2.90;;;1.73;;
38865;SDS011;62686;48.984;8.394;2023-04-03T03:01:04;3.83;;;1.70;;
38865;SDS011;62686;48.984;8.394;2023-04-03T03:03:32;3.50;;;2.00;;
38865;SDS011;62686;48.984;8.394;2023-04-03T03:06:06;5.97;;;2.07;;
38865;SDS011;62686;48.984;8.394;2023-04-03T03:08:36;4.07;;;2.20;;
38865;SDS011;62686;48.984;8.394;2023-04-03T03:11:04;3.60;;;2.17;;
38865;SDS011;62686;48.984;8.394;2023-04-03T03:13:33;3.73;;;2.23;;
38865;SDS011;62686;48.984;8.394;2023-04-03T03:16:06;3.90;;;2.00;;
38865;SDS011;62686;48.984;8.394;2023-04-03T03:18:34;3.83;;;2.00;;
38865;SDS011;62686;48.984;8.394;2023-04-03T03:21:03;2.40;;;1.83;;
38865;SDS011;62686;48.984;8.394;2023-04-03T03:23:32;4.07;;;1.93;;
38865;SDS011;62686;48.984;8.394;2023-04-03T03:26:01;2.70;;;2.00;;
38865;SDS011;62686;48.984;8.394;2023-04-03T03:28:31;4.23;;;2.17;;
38865;SDS011;62686;48.984;8.394;2023-04-03T03:31:02;3.97;;;2.10;;
38865;SDS011;62686;48.984;8.394;2023-04-03T03:33:33;3.20;;;1.80;;
38865;SDS011;62686;48.984;8.394;2023-04-03T03:36:01;5.40;;;2.40;;
38865;SDS011;62686;48.984;8.394;2023-04-03T03:38:30;4.30;;;2.30;;
38865;SDS011;62686;48.984;8.394;2023-04-03T03:40:58;3.93;;;2.50;;
38865;SDS011;62686;48.984;8.394;2023-04-03T03:43:27;4.33;;;2.27;;
38865;SDS011;62686;48.984;8.394;2023-04-03T03:45:56;5.60;;;2.07;;
38865;SDS011;62686;48.984;8.394;2023-04-03T03:48:24;2.93;;;1.97;;
38865;SDS011;62686;48.984;8.394;2023-04-03T03:50:54;3.70;;;1.90;;
38865;SDS011;62686;48.984;8.394;2023-04-03T03:53:22;2.37;;;2.00;;
38865;SDS011;62686;48.984;8.394;2023-04-03T03:55:50;3.23;;;2.07;;
38865;SDS011;62686;48.984;8.394;2023-04-03T03:58:18;3.97;;;2.33;;
38865;SDS011;62686;48.984;8.394;2023-04-03T04:00:47;3.73;;;2.00;;
38865;SDS011;62686;48.984;8.394;2023-04-03T04:03:15;3.67;;;2.30;;
38865;SDS011;62686;48.984;8.394;2023-04-03T04:05:44;2.73;;;2.10;;
38865;SDS011;62686;48.984;8.394;2023-04-03T04:08:13;4.00;;;2.27;;
38865;SDS011;62686;48.984;8.394;2023-04-03T04:10:41;2.73;;;2.10;;
38865;SDS011;62686;48.984;8.394;2023-04-03T04:13:10;2.23;;;1.90;;
38865;SDS011;62686;48.984;8.394;2023-04-03T04:15:38;3.30;;;2.00;;
38865;SDS011;62686;48.984;8.394;2023-04-03T04:18:06;5.17;;;2.23;;
38865;SDS011;62686;48.984;8.394;2023-04-03T04:20:34;2.97;;;2.03;;
38865;SDS011;62686;48.984;8.394;2023-04-03T04:23:02;3.33;;;2.30;;
38865;SDS011;62686;48.984;8.394;2023-04-03T04:25:32;3.73;;;2.30;;
38865;SDS011;62686;48.984;8.394;2023-04-03T04:28:01;4.20;;;1.87;;
38865;SDS011;62686;48.984;8.394;2023-04-03T04:30:29;2.60;;;1.70;;
38865;SDS011;62686;48.984;8.394;2023-04-03T04:33:00;3.00;;;1.83;;
38865;SDS011;62686;48.984;8.394;2023-04-03T04:35:31;5.17;;;2.00;;
38865;SDS011;62686;48.984;8.394;2023-04-03T04:37:59;4.50;;;2.10;;
38865;SDS011;62686;48.984;8.394;2023-04-03T04:40:28;2.23;;;1.80;;
38865;SDS011;62686;48.984;8.394;2023-04-03T04:43:10;2.20;;;1.77;;
38865;SDS011;62686;48.984;8.394;2023-04-03T04:45:48;3.53;;;1.73;;
38865;SDS011;62686;48.984;8.394;2023-04-03T04:48:17;4.13;;;2.10;;
38865;SDS011;62686;48.984;8.394;2023-04-03T04:50:48;2.40;;;1.90;;
38865;SDS011;62686;48.984;8.394;2023-04-03T04:53:17;5.10;;;2.00;;
38865;SDS011;62686;48.984;8.394;2023-04-03T04:55:46;2.67;;;1.87;;
38865;SDS011;62686;48.984;8.394;2023-04-03T04:58:15;2.97;;;2.00;;
38865;SDS011;62686;48.984;8.394;2023-04-03T05:00:43;3.27;;;2.17;;
38865;SDS011;62686;48.984;8.394;2023-04-03T05:03:12;3.13;;;1.93;;
38865;SDS011;62686;48.984;8.394;2023-04-03T05:55:20;4.50;;;2.20;;
38865;SDS011;62686;48.984;8.394;2023-04-03T05:57:48;2.87;;;1.90;;
38865;SDS011;62686;48.984;8.394;2023-04-03T06:00:17;3.93;;;1.80;;
38865;SDS011;62686;48.984;8.394;2023-04-03T06:02:45;4.40;;;2.23;;
38865;SDS011;62686;48.984;8.394;2023-04-03T06:05:14;2.40;;;2.00;;
38865;SDS011;62686;48.984;8.394;2023-04-03T06:07:42;3.00;;;1.83;;
38865;SDS011;62686;48.984;8.394;2023-04-03T06:10:11;3.50;;;1.97;;
38865;SDS011;62686;48.984;8.394;2023-04-03T06:12:42;3.90;;;2.00;;
38865;SDS011;62686;48.984;8.394;2023-04-03T06:15:11;2.57;;;1.80;;
38865;SDS011;62686;48.984;8.394;2023-04-03T06:17:39;2.37;;;1.87;;
38865;SDS011;62686;48.984;8.394;2023-04-03T06:20:07;4.07;;;1.73;;
38865;SDS011;62686;48.984;8.394;2023-04-03T06:22:36;2.63;;;1.90;;
38865;SDS011;62686;48.984;8.394;2023-04-03T06:25:05;3.33;;;2.10;;
38865;SDS011;62686;48.984;8.394;2023-04-03T06:27:34;2.87;;;2.13;;
38865;SDS011;62686;48.984;8.394;2023-04-03T06:30:04;4.03;;;1.80;;
38865;SDS011;62686;48.984;8.394;2023-04-03T06:32:33;5.07;;;2.10;;
38865;SDS011;62686;48.984;8.394;2023-04-03T06:35:02;3.20;;;1.90;;
38865;SDS011;62686;48.984;8.394;2023-04-03T06:37:31;3.00;;;1.93;;
38865;SDS011;62686;48.984;8.394;2023-04-03T06:39:59;3.53;;;2.00;;
38865;SDS011;62686;48.984;8.394;2023-04-03T06:42:28;3.53;;;2.00;;
38865;SDS011;62686;48.984;8.394;2023-04-03T06:44:56;6.30;;;2.10;;
38865;SDS011;62686;48.984;8.394;2023-04-03T06:47:26;5.07;;;1.80;;
38865;SDS011;62686;48.984;8.394;2023-04-03T06:49:54;2.63;;;2.00;;
38865;SDS011;62686;48.984;8.394;2023-04-03T06:52:22;2.63;;;1.83;;
38865;SDS011;62686;48.984;8.394;2023-04-03T06:54:50;3.43;;;1.87;;
38865;SDS011;62686;48.984;8.394;2023-04-03T06:57:23;3.63;;;2.00;;
38865;SDS011;62686;48.984;8.394;2023-04-03T06:59:51;5.03;;;1.90;;
38865;SDS011;62686;48.984;8.394;2023-04-03T07:02:19;3.83;;;1.90;;
38865;SDS011;62686;48.984;8.394;2023-04-03T07:04:49;3.23;;;1.63;;
38865;SDS011;62686;48.984;8.394;2023-04-03T07:07:18;4.10;;;1.40;;
38865;SDS011;62686;48.984;8.394;2023-04-03T07:09:46;2.43;;;1.60;;
38865;SDS011;62686;48.984;8.394;2023-04-03T07:12:14;3.90;;;1.90;;
38865;SDS011;62686;48.984;8.394;2023-04-03T07:14:42;3.40;;;1.63;;
38865;SDS011;62686;48.984;8.394;2023-04-03T07:17:11;3.77;;;1.83;;
38865;SDS011;62686;48.984;8.394;2023-04-03T07:19:39;4.20;;;1.90;;
38865;SDS011;62686;48.984;8.394;2023-04-03T07:22:09;3.07;;;1.80;;
38865;SDS011;62686;48.984;8.394;2023-04-03T07:24:38;5.60;;;2.00;;
38865;SDS011;62686;48.984;8.394;2023-04-03T07:27:06;3.40;;;1.83;;
38865;SDS011;62686;48.984;8.394;2023-04-03T07:29:35;5.80;;;2.30;;
38865;SDS011;62686;48.984;8.394;2023-04-03T07:32:03;5.80;;;2.73;;
38865;SDS011;62686;48.984;8.394;2023-04-03T07:34:33;3.67;;;2.03;;
38865;SDS011;62686;48.984;8.394;2023-04-03T07:37:01;5.43;;;2.03;;
38865;SDS011;62686;48.984;8.394;2023-04-03T07:39:32;3.87;;;1.60;;
38865;SDS011;62686;48.984;8.394;2023-04-03T07:42:00;4.60;;;1.97;;
38865;SDS011;62686;48.984;8.394;2023-04-03T07:44:30;4.07;;;1.70;;
38865;SDS011;62686;48.984;8.394;2023-04-03T07:46:58;5.70;;;1.80;;
38865;SDS011;62686;48.984;8.394;2023-04-03T07:49:26;3.73;;;1.73;;
38865;SDS011;62686;48.984;8.394;2023-04-03T07:51:55;4.30;;;2.17;;
38865;SDS011;62686;48.984;8.394;2023-04-03T07:54:23;4.63;;;2.17;;
38865;SDS011;62686;48.984;8.394;2023-04-03T07:56:53;3.73;;;2.03;;
38865;SDS011;62686;48.984;8.394;2023-04-03T07:59:21;4.20;;;2.20;;
38865;SDS011;62686;48.984;8.394;2023-04-03T08:01:50;3.03;;;2.10;;
38865;SDS011;62686;48.984;8.394;2023-04-03T08:04:18;3.27;;;1.90;;
38865;SDS011;62686;48.984;8.394;2023-04-03T08:06:48;3.50;;;1.80;;
38865;SDS011;62686;48.984;8.394;2023-04-03T08:09:17;3.77;;;1.90;;
38865;SDS011;62686;48.984;8.394;2023-04-03T08:11:46;3.40;;;1.90;;
38865;SDS011;62686;48.984;8.394;2023-04-03T08:14:16;5.77;;;2.17;;
38865;SDS011;62686;48.984;8.394;2023-04-03T08:16:45;3.33;;;1.73;;
38865;SDS011;62686;48.984;8.394;2023-04-03T08:19:14;2.87;;;2.00;;
38865;SDS011;62686;48.984;8.394;2023-04-03T08:21:50;3.93;;;1.80;;
38865;SDS011;62686;48.984;8.394;2023-04-03T08:24:18;3.70;;;1.90;;
38865;SDS011;62686;48.984;8.394;2023-04-03T08:26:47;5.93;;;2.20;;
38865;SDS011;62686;48.984;8.394;2023-04-03T08:29:19;9.77;;;2.03;;
38865;SDS011;62686;48.984;8.394;2023-04-03T08:31:48;3.57;;;1.83;;
38865;SDS011;62686;48.984;8.394;2023-04-03T08:34:17;4.47;;;2.20;;
38865;SDS011;62686;48.984;8.394;2023-04-03T08:36:48;3.03;;;1.90;;
38865;SDS011;62686;48.984;8.394;2023-04-03T08:39:16;3.83;;;2.00;;
38865;SDS011;62686;48.984;8.394;2023-04-03T08:41:45;4.30;;;2.07;;
38865;SDS011;62686;48.984;8.394;2023-04-03T08:44:15;3.07;;;2.07;;
38865;SDS011;62686;48.984;8.394;2023-04-03T08:47:02;5.07;;;2.27;;
38865;SDS011;62686;48.984;8.394;2023-04-03T08:49:39;6.40;;;2.40;;
38865;SDS011;62686;48.984;8.394;2023-04-03T08:52:13;3.77;;;2.00;;
38865;SDS011;62686;48.984;8.394;2023-04-03T08:54:48;5.10;;;2.00;;
38865;SDS011;62686;48.984;8.394;2023-04-03T08:57:20;2.03;;;1.80;;
38865;SDS011;62686;48.984;8.394;2023-04-03T08:59:58;4.40;;;1.80;;
38865;SDS011;62686;48.984;8.394;2023-04-03T09:02:31;3.40;;;1.70;;
38865;SDS011;62686;48.984;8.394;2023-04-03T09:05:02;5.43;;;1.80;;
38865;SDS011;62686;48.984;8.394;2023-04-03T09:07:42;4.97;;;2.00;;
38865;SDS011;62686;48.984;8.394;2023-04-03T09:10:15;9.53;;;1.87;;
38865;SDS011;62686;48.984;8.394;2023-04-03T09:12:49;3.87;;;1.70;;
38865;SDS011;62686;48.984;8.394;2023-04-03T09:15:28;9.83;;;1.90;;
38865;SDS011;62686;48.984;8.394;2023-04-03T09:18:04;8.40;;;1.83;;
38865;SDS011;62686;48.984;8.394;2023-04-03T09:20:39;4.27;;;1.77;;
38865;SDS011;62686;48.984;8.394;2023-04-03T09:23:15;4.30;;;2.10;;
38865;SDS011;62686;48.984;8.394;2023-04-03T09:25:49;3.00;;;1.80;;
38865;SDS011;62686;48.984;8.394;2023-04-03T09:28:21;4.03;;;1.70;;
38865;SDS011;62686;48.984;8.394;2023-04-03T09:30:50;2.67;;;1.40;;
38865;SDS011;62686;48.984;8.394;2023-04-03T09:33:18;9.57;;;2.00;;
38865;SDS011;62686;48.984;8.394;2023-04-03T09:35:48;3.80;;;2.13;;
38865;SDS011;62686;48.984;8.394;2023-04-03T09:38:19;4.70;;;1.90;;
38865;SDS011;62686;48.984;8.394;2023-04-03T09:40:49;3.00;;;1.60;;
38865;SDS011;62686;48.984;8.394;2023-04-03T09:43:29;8.57;;;1.73;;
38865;SDS011;62686;48.984;8.394;2023-04-03T09:48:57;2.93;;;1.53;;
38865;SDS011;62686;48.984;8.394;2023-04-03T09:51:33;6.77;;;1.90;;
38865;SDS011;62686;48.984;8.394;2023-04-03T09:54:01;3.50;;;1.23;;
38865;SDS011;62686;48.984;8.394;2023-04-03T09:57:08;3.53;;;1.50;;
38865;SDS011;62686;48.984;8.394;2023-04-03T09:59:41;3.33;;;1.50;;
38865;SDS011;62686;48.984;8.394;2023-04-03T10:02:27;6.10;;;1.80;;
38865;SDS011;62686;48.984;8.394;2023-04-03T10:05:00;4.43;;;1.57;;
38865;SDS011;62686;48.984;8.394;2023-04-03T10:07:32;3.00;;;1.50;;
38865;SDS011;62686;48.984;8.394;2023-04-03T10:10:15;3.93;;;1.40;;
38865;SDS011;62686;48.984;8.394;2023-04-03T10:12:46;3.07;;;1.50;;
38865;SDS011;62686;48.984;8.394;2023-04-03T10:15:16;4.63;;;1.67;;
38865;SDS011;62686;48.984;8.394;2023-04-03T10:17:49;3.10;;;1.40;;
38865;SDS011;62686;48.984;8.394;2023-04-03T10:20:26;2.93;;;1.33;;
38865;SDS011;62686;48.984;8.394;2023-04-03T10:23:01;5.37;;;1.90;;
38865;SDS011;62686;48.984;8.394;2023-04-03T10:25:40;5.00;;;1.63;;
38865;SDS011;62686;48.984;8.394;2023-04-03T10:28:16;2.90;;;1.30;;
38865;SDS011;62686;48.984;8.394;2023-04-03T10:30:54;8.77;;;1.40;;
38865;SDS011;62686;48.984;8.394;2023-04-03T10:33:34;3.67;;;1.50;;
38865;SDS011;62686;48.984;8.394;2023-04-03T10:36:14;1.90;;;1.20;;
38865;SDS011;62686;48.984;8.394;2023-04-03T10:38:53;4.03;;;1.40;;
38865;SDS011;62686;48.984;8.394;2023-04-03T10:41:32;2.17;;;1.20;;
38865;SDS011;62686;48.984;8.394;2023-04-03T10:44:11;4.50;;;1.47;;
38865;SDS011;62686;48.984;8.394;2023-04-03T10:46:51;8.80;;;1.73;;
38865;SDS011;62686;48.984;8.394;2023-04-03T10:49:30;6.87;;;1.57;;
38865;SDS011;62686;48.984;8.394;2023-04-03T10:52:14;9.70;;;1.67;;
38865;SDS011;62686;48.984;8.394;2023-04-03T10:54:52;4.13;;;1.50;;
38865;SDS011;62686;48.984;8.394;2023-04-03T10:57:28;2.90;;;1.40;;
38865;SDS011;62686;48.984;8.394;2023-04-03T10:59:58;2.50;;;1.20;;
38865;SDS011;62686;48.984;8.394;2023-04-03T11:02:29;2.83;;;1.27;;
38865;SDS011;62686;48.984;8.394;2023-04-03T11:05:03;2.47;;;1.27;;
38865;SDS011;62686;48.984;8.394;2023-04-03T11:07:37;5.87;;;1.40;;
38865;SDS011;62686;48.984;8.394;2023-04-03T11:10:11;2.13;;;1.20;;
38865;SDS011;62686;48.984;8.394;2023-04-03T11:12:46;2.60;;;1.40;;
38865;SDS011;62686;48.984;8.394;2023-04-03T11:15:17;3.10;;;1.40;;
38865;SDS011;62686;48.984;8.394;2023-04-03T11:17:48;2.00;;;1.03;;
38865;SDS011;62686;48.984;8.394;2023-04-03T11:20:26;2.80;;;1.13;;
38865;SDS011;62686;48.984;8.394;2023-04-03T11:23:00;3.63;;;1.40;;
38865;SDS011;62686;48.984;8.394;2023-04-03T11:25:32;2.33;;;1.40;;
38865;SDS011;62686;48.984;8.394;2023-04-03T11:28:03;2.00;;;1.20;;
38865;SDS011;62686;48.984;8.394;2023-04-03T11:30:33;6.30;;;1.23;;
38865;SDS011;62686;48.984;8.394;2023-04-03T11:36:00;2.07;;;1.40;;
38865;SDS011;62686;48.984;8.394;2023-04-03T11:38:38;3.40;;;1.30;;
38865;SDS011;62686;48.984;8.394;2023-04-03T11:41:11;1.47;;;1.10;;
38865;SDS011;62686;48.984;8.394;2023-04-03T11:43:42;1.57;;;1.13;;
38865;SDS011;62686;48.984;8.394;2023-04-03T11:46:30;1.67;;;1.00;;
38865;SDS011;62686;48.984;8.394;2023-04-03T11:55:45;3.90;;;1.40;;
38865;SDS011;62686;48.984;8.394;2023-04-03T11:58:22;1.50;;;1.00;;
38865;SDS011;62686;48.984;8.394;2023-04-03T12:00:53;4.13;;;1.40;;
38865;SDS011;62686;48.984;8.394;2023-04-03T12:03:30;3.87;;;1.47;;
38865;SDS011;62686;48.984;8.394;2023-04-03T12:09:28;5.20;;;1.67;;
38865;SDS011;62686;48.984;8.394;2023-04-03T12:12:21;2.17;;;1.30;;
38865;SDS011;62686;48.984;8.394;2023-04-03T12:15:21;3.80;;;1.40;;
38865;SDS011;62686;48.984;8.394;2023-04-03T12:17:51;2.00;;;1.30;;
38865;SDS011;62686;48.984;8.394;2023-04-03T12:23:30;2.77;;;1.47;;
38865;SDS011;62686;48.984;8.394;2023-04-03T12:26:05;2.53;;;1.33;;
38865;SDS011;62686;48.984;8.394;2023-04-03T12:28:48;3.63;;;1.47;;
38865;SDS011;62686;48.984;8.394;2023-04-03T12:31:19;2.87;;;1.57;;
38865;SDS011;62686;48.984;8.394;2023-04-03T12:33:59;2.57;;;1.37;;
38865;SDS011;62686;48.984;8.394;2023-04-03T12:36:50;3.87;;;1.40;;
38865;SDS011;62686;48.984;8.394;2023-04-03T12:39:34;5.83;;;1.40;;
38865;SDS011;62686;48.984;8.394;2023-04-03T12:42:34;1.83;;;1.40;;
38865;SDS011;62686;48.984;8.394;2023-04-03T12:45:16;2.87;;;1.47;;
38865;SDS011;62686;48.984;8.394;2023-04-03T12:47:48;2.70;;;1.40;;
38865;SDS011;62686;48.984;8.394;2023-04-03T12:50:20;2.70;;;1.40;;
38865;SDS011;62686;48.984;8.394;2023-04-03T12:52:52;2.87;;;1.57;;
38865;SDS011;62686;48.984;8.394;2023-04-03T12:55:52;2.43;;;1.30;;
38865;SDS011;62686;48.984;8.394;2023-04-03T13:01:09;3.13;;;1.47;;
38865;SDS011;62686;48.984;8.394;2023-04-03T13:03:47;2.43;;;1.70;;
38865;SDS011;62686;48.984;8.394;2023-04-03T13:08:59;1.63;;;1.20;;
38865;SDS011;62686;48.984;8.394;2023-04-03T13:11:30;2.97;;;1.30;;
38865;SDS011;62686;48.984;8.394;2023-04-03T13:14:04;4.37;;;1.77;;
38865;SDS011;62686;48.984;8.394;2023-04-03T13:16:43;3.70;;;1.60;;
38865;SDS011;62686;48.984;8.394;2023-04-03T13:19:22;2.80;;;1.43;;
38865;SDS011;62686;48.984;8.394;2023-04-03T13:21:53;4.57;;;1.90;;
38865;SDS011;62686;48.984;8.394;2023-04-03T13:24:25;3.27;;;1.53;;
38865;SDS011;62686;48.984;8.394;2023-04-03T13:26:55;2.53;;;1.60;;
38865;SDS011;62686;48.984;8.394;2023-04-03T13:29:26;2.33;;;1.47;;
38865;SDS011;62686;48.984;8.394;2023-04-03T13:31:58;3.27;;;1.20;;
38865;SDS011;62686;48.984;8.394;2023-04-03T13:34:29;2.97;;;1.33;;
38865;SDS011;62686;48.984;8.394;2023-04-03T13:37:03;2.97;;;1.57;;
38865;SDS011;62686;48.984;8.394;2023-04-03T13:39:58;3.07;;;1.40;;
38865;SDS011;62686;48.984;8.394;2023-04-03T13:42:30;2.20;;;1.50;;
38865;SDS011;62686;48.984;8.394;2023-04-03T13:45:09;4.73;;;1.63;;
38865;SDS011;62686;48.984;8.394;2023-04-03T13:47:48;3.67;;;1.30;;
38865;SDS011;62686;48.984;8.394;2023-04-03T13:50:19;2.57;;;1.60;;
38865;SDS011;62686;48.984;8.394;2023-04-03T13:52:49;3.77;;;1.43;;
38865;SDS011;62686;48.984;8.394;2023-04-03T13:55:22;2.97;;;1.43;;
38865;SDS011;62686;48.984;8.394;2023-04-03T13:57:53;2.83;;;1.60;;
38865;SDS011;62686;48.984;8.394;2023-04-03T14:00:33;2.50;;;1.33;;
38865;SDS011;62686;48.984;8.394;2023-04-03T14:03:14;2.70;;;1.50;;
38865;SDS011;62686;48.984;8.394;2023-04-03T14:08:53;2.80;;;1.50;;
38865;SDS011;62686;48.984;8.394;2023-04-03T14:14:21;2.50;;;1.60;;
38865;SDS011;62686;48.984;8.394;2023-04-03T14:16:54;3.80;;;1.40;;
38865;SDS011;62686;48.984;8.394;2023-04-03T14:19:34;3.20;;;1.40;;
38865;SDS011;62686;48.984;8.394;2023-04-03T14:22:13;4.40;;;1.60;;
38865;SDS011;62686;48.984;8.394;2023-04-03T14:24:44;2.23;;;1.30;;
38865;SDS011;62686;48.984;8.394;2023-04-03T14:27:15;2.10;;;1.40;;
38865;SDS011;62686;48.984;8.394;2023-04-03T14:29:45;4.00;;;1.80;;
38865;SDS011;62686;48.984;8.394;2023-04-03T14:32:15;3.23;;;1.67;;
38865;SDS011;62686;48.984;8.394;2023-04-03T14:34:46;2.13;;;1.60;;
38865;SDS011;62686;48.984;8.394;2023-04-03T14:37:16;6.67;;;1.53;;
38865;SDS011;62686;48.984;8.394;2023-04-03T14:39:46;2.27;;;1.23;;
38865;SDS011;62686;48.984;8.394;2023-04-03T14:42:16;3.50;;;1.70;;
38865;SDS011;62686;48.984;8.394;2023-04-03T14:44:47;3.60;;;1.60;;
38865;SDS011;62686;48.984;8.394;2023-04-03T14:47:16;3.97;;;1.40;;
38865;SDS011;62686;48.984;8.394;2023-04-03T14:49:54;2.50;;;1.50;;
38865;SDS011;62686;48.984;8.394;2023-04-03T14:52:23;5.57;;;1.57;;
38865;SDS011;62686;48.984;8.394;2023-04-03T14:54:54;3.80;;;1.70;;
38865;SDS011;62686;48.984;8.394;2023-04-03T14:57:25;4.40;;;1.70;;
38865;SDS011;62686;48.984;8.394;2023-04-03T14:59:56;3.97;;;1.60;;
38865;SDS011;62686;48.984;8.394;2023-04-03T15:02:28;4.73;;;1.40;;
38865;SDS011;62686;48.984;8.394;2023-04-03T15:05:00;4.90;;;1.40;;
38865;SDS011;62686;48.984;8.394;2023-04-03T15:07:31;5.97;;;1.67;;
38865;SDS011;62686;48.984;8.394;2023-04-03T15:10:13;2.70;;;1.57;;
38865;SDS011;62686;48.984;8.394;2023-04-03T15:12:45;2.77;;;1.43;;
38865;SDS011;62686;48.984;8.394;2023-04-03T15:15:14;2.27;;;1.20;;
38865;SDS011;62686;48.984;8.394;2023-04-03T15:17:44;2.73;;;1.50;;
38865;SDS011;62686;48.984;8.394;2023-04-03T15:20:16;2.63;;;1.53;;
38865;SDS011;62686;48.984;8.394;2023-04-03T15:22:46;2.97;;;1.67;;
38865;SDS011;62686;48.984;8.394;2023-04-03T15:25:15;3.93;;;1.70;;
38865;SDS011;62686;48.984;8.394;2023-04-03T15:27:44;2.10;;;1.60;;
38865;SDS011;62686;48.984;8.394;2023-04-03T15:30:14;2.53;;;1.50;;
38865;SDS011;62686;48.984;8.394;2023-04-03T15:32:44;3.93;;;1.90;;
38865;SDS011;62686;48.984;8.394;2023-04-03T15:35:15;4.57;;;1.63;;
38865;SDS011;62686;48.984;8.394;2023-04-03T15:37:44;3.93;;;1.63;;
38865;SDS011;62686;48.984;8.394;2023-04-03T15:40:12;3.33;;;1.67;;
38865;SDS011;62686;48.984;8.394;2023-04-03T15:42:41;5.13;;;1.70;;
38865;SDS011;62686;48.984;8.394;2023-04-03T15:45:09;4.50;;;1.67;;
38865;SDS011;62686;48.984;8.394;2023-04-03T15:47:37;2.63;;;1.90;;
38865;SDS011;62686;48.984;8.394;2023-04-03T15:50:09;3.40;;;1.70;;
38865;SDS011;62686;48.984;8.394;2023-04-03T15:52:42;1.97;;;1.40;;
38865;SDS011;62686;48.984;8.394;2023-04-03T15:55:11;2.87;;;1.50;;
38865;SDS011;62686;48.984;8.394;2023-04-03T15:57:39;2.50;;;1.57;;
38865;SDS011;62686;48.984;8.394;2023-04-03T16:00:07;3.00;;;1.50;;
38865;SDS011;62686;48.984;8.394;2023-04-03T16:02:37;2.23;;;1.50;;
38865;SDS011;62686;48.984;8.394;2023-04-03T16:05:05;3.20;;;1.43;;
38865;SDS011;62686;48.984;8.394;2023-04-03T16:07:36;3.33;;;1.80;;
38865;SDS011;62686;48.984;8.394;2023-04-03T16:10:11;2.73;;;1.70;;
38865;SDS011;62686;48.984;8.394;2023-04-03T16:12:42;3.40;;;1.77;;
38865;SDS011;62686;48.984;8.394;2023-04-03T16:15:10;2.10;;;1.43;;
38865;SDS011;62686;48.984;8.394;2023-04-03T16:17:38;2.37;;;1.40;;
38865;SDS011;62686;48.984;8.394;2023-04-03T16:20:09;8.80;;;1.90;;
38865;SDS011;62686;48.984;8.394;2023-04-03T16:22:39;3.40;;;1.70;;
38865;SDS011;62686;48.984;8.394;2023-04-03T16:25:09;3.93;;;1.80;;
38865;SDS011;62686;48.984;8.394;2023-04-03T16:27:38;3.90;;;1.60;;
38865;SDS011;62686;48.984;8.394;2023-04-03T16:30:07;3.63;;;1.67;;
38865;SDS011;62686;48.984;8.394;2023-04-03T16:32:37;6.63;;;1.70;;
38865;SDS011;62686;48.984;8.394;2023-04-03T16:35:06;2.57;;;1.57;;
38865;SDS011;62686;48.984;8.394;2023-04-03T16:37:36;3.20;;;1.80;;
38865;SDS011;62686;48.984;8.394;2023-04-03T16:40:05;7.73;;;1.90;;